sensor_id;sensor_type;location;lat;lon;timestamp;P1;durP1;ratioP1;P2;durP2;ratioP2
249;SDS011;109;19.806;-70.704;2023-08-07T00:01:18;15.20;;;5.00;;
249;SDS011;109;19.806;-70.704;2023-08-07T00:03:44;11.80;;;4.37;;
249;SDS011;109;19.806;-70.704;2023-08-07T00:06:11;15.40;;;4.60;;
249;SDS011;109;19.806;-70.704;2023-08-07T00:08:37;21.23;;;5.33;;
249;SDS011;109;19.806;-70.704;2023-08-07T00:11:04;16.77;;;5.10;;
249;SDS011;109;19.806;-70.704;2023-08-07T00:13:34;11.87;;;4.20;;
249;SDS011;109;19.806;-70.704;2023-08-07T00:16:01;10.20;;;4.23;;
249;SDS011;109;19.806;-70.704;2023-08-07T00:18:28;9.70;;;3.60;;
249;SDS011;109;19.806;-70.704;2023-08-07T00:20:55;20.37;;;5.13;;
249;SDS011;109;19.806;-70.704;2023-08-07T00:23:21;32.57;;;6.33;;
249;SDS011;109;19.806;-70.704;2023-08-07T00:25:48;24.00;;;5.33;;
249;SDS011;109;19.806;-70.704;2023-08-07T00:28:14;27.53;;;5.40;;
249;SDS011;109;19.806;-70.704;2023-08-07T00:30:41;28.53;;;6.33;;
249;SDS011;109;19.806;-70.704;2023-08-07T00:33:07;16.83;;;5.13;;
249;SDS011;109;19.806;-70.704;2023-08-07T00:35:34;24.60;;;5.10;;
249;SDS011;109;19.806;-70.704;2023-08-07T00:38:01;21.47;;;4.83;;
249;SDS011;109;19.806;-70.704;2023-08-07T00:40:28;13.83;;;3.90;;
249;SDS011;109;19.806;-70.704;2023-08-07T00:43:01;10.07;;;4.37;;
249;SDS011;109;19.806;-70.704;2023-08-07T00:45:27;12.07;;;4.43;;
249;SDS011;109;19.806;-70.704;2023-08-07T00:47:54;12.70;;;4.40;;
249;SDS011;109;19.806;-70.704;2023-08-07T00:50:21;8.40;;;3.77;;
249;SDS011;109;19.806;-70.704;2023-08-07T00:52:47;11.90;;;3.63;;
249;SDS011;109;19.806;-70.704;2023-08-07T00:55:14;14.77;;;3.80;;
249;SDS011;109;19.806;-70.704;2023-08-07T00:57:41;9.10;;;3.43;;
249;SDS011;109;19.806;-70.704;2023-08-07T01:00:07;13.30;;;3.60;;
249;SDS011;109;19.806;-70.704;2023-08-07T01:02:34;11.17;;;3.67;;
249;SDS011;109;19.806;-70.704;2023-08-07T01:05:01;9.03;;;3.30;;
249;SDS011;109;19.806;-70.704;2023-08-07T01:07:27;11.93;;;3.97;;
249;SDS011;109;19.806;-70.704;2023-08-07T01:09:54;10.00;;;3.10;;
249;SDS011;109;19.806;-70.704;2023-08-07T01:12:30;11.20;;;4.00;;
249;SDS011;109;19.806;-70.704;2023-08-07T01:15:02;7.03;;;3.40;;
249;SDS011;109;19.806;-70.704;2023-08-07T01:17:44;9.43;;;3.43;;
249;SDS011;109;19.806;-70.704;2023-08-07T01:20:13;5.80;;;3.30;;
249;SDS011;109;19.806;-70.704;2023-08-07T01:22:46;9.10;;;3.53;;
249;SDS011;109;19.806;-70.704;2023-08-07T01:25:13;6.80;;;2.90;;
249;SDS011;109;19.806;-70.704;2023-08-07T01:27:53;8.87;;;3.27;;
249;SDS011;109;19.806;-70.704;2023-08-07T01:30:39;9.00;;;2.90;;
249;SDS011;109;19.806;-70.704;2023-08-07T01:33:31;8.60;;;3.93;;
249;SDS011;109;19.806;-70.704;2023-08-07T01:36:20;6.90;;;3.03;;
249;SDS011;109;19.806;-70.704;2023-08-07T01:39:12;6.97;;;3.00;;
249;SDS011;109;19.806;-70.704;2023-08-07T01:41:46;8.63;;;3.40;;
249;SDS011;109;19.806;-70.704;2023-08-07T01:44:14;10.67;;;3.40;;
249;SDS011;109;19.806;-70.704;2023-08-07T01:46:46;8.33;;;3.20;;
249;SDS011;109;19.806;-70.704;2023-08-07T01:49:13;16.23;;;3.73;;
249;SDS011;109;19.806;-70.704;2023-08-07T01:51:46;7.70;;;2.60;;
249;SDS011;109;19.806;-70.704;2023-08-07T01:54:13;8.10;;;3.57;;
249;SDS011;109;19.806;-70.704;2023-08-07T01:56:47;7.47;;;3.40;;
249;SDS011;109;19.806;-70.704;2023-08-07T01:59:13;10.87;;;3.30;;
249;SDS011;109;19.806;-70.704;2023-08-07T02:01:46;7.03;;;3.07;;
249;SDS011;109;19.806;-70.704;2023-08-07T02:04:13;4.73;;;2.93;;
249;SDS011;109;19.806;-70.704;2023-08-07T02:06:47;10.63;;;3.47;;
249;SDS011;109;19.806;-70.704;2023-08-07T02:09:13;12.60;;;3.90;;
249;SDS011;109;19.806;-70.704;2023-08-07T02:11:46;7.87;;;3.07;;
249;SDS011;109;19.806;-70.704;2023-08-07T02:14:13;12.60;;;3.60;;
249;SDS011;109;19.806;-70.704;2023-08-07T02:16:47;6.00;;;3.40;;
249;SDS011;109;19.806;-70.704;2023-08-07T02:19:13;9.90;;;3.10;;
249;SDS011;109;19.806;-70.704;2023-08-07T02:21:47;12.97;;;3.77;;
249;SDS011;109;19.806;-70.704;2023-08-07T02:24:13;9.40;;;3.50;;
249;SDS011;109;19.806;-70.704;2023-08-07T02:26:47;8.83;;;3.80;;
249;SDS011;109;19.806;-70.704;2023-08-07T02:29:13;7.67;;;3.03;;
249;SDS011;109;19.806;-70.704;2023-08-07T02:31:54;6.40;;;2.80;;
249;SDS011;109;19.806;-70.704;2023-08-07T02:34:28;7.73;;;3.10;;
249;SDS011;109;19.806;-70.704;2023-08-07T02:36:57;11.93;;;3.70;;
249;SDS011;109;19.806;-70.704;2023-08-07T02:39:30;10.10;;;3.97;;
249;SDS011;109;19.806;-70.704;2023-08-07T02:42:11;14.97;;;3.53;;
249;SDS011;109;19.806;-70.704;2023-08-07T02:44:38;7.60;;;3.60;;
249;SDS011;109;19.806;-70.704;2023-08-07T02:47:12;14.30;;;3.93;;
249;SDS011;109;19.806;-70.704;2023-08-07T02:49:38;10.17;;;3.40;;
249;SDS011;109;19.806;-70.704;2023-08-07T02:52:12;13.60;;;3.13;;
249;SDS011;109;19.806;-70.704;2023-08-07T02:54:38;15.63;;;3.97;;
249;SDS011;109;19.806;-70.704;2023-08-07T02:57:12;5.60;;;3.00;;
249;SDS011;109;19.806;-70.704;2023-08-07T02:59:38;8.90;;;3.20;;
249;SDS011;109;19.806;-70.704;2023-08-07T03:02:12;16.20;;;3.80;;
249;SDS011;109;19.806;-70.704;2023-08-07T03:04:46;9.77;;;3.10;;
249;SDS011;109;19.806;-70.704;2023-08-07T03:07:19;8.40;;;3.13;;
249;SDS011;109;19.806;-70.704;2023-08-07T03:09:46;10.17;;;2.90;;
249;SDS011;109;19.806;-70.704;2023-08-07T03:12:21;12.23;;;3.83;;
249;SDS011;109;19.806;-70.704;2023-08-07T03:14:48;7.80;;;3.13;;
249;SDS011;109;19.806;-70.704;2023-08-07T03:17:22;6.97;;;3.30;;
249;SDS011;109;19.806;-70.704;2023-08-07T03:19:48;14.60;;;4.17;;
249;SDS011;109;19.806;-70.704;2023-08-07T03:22:22;8.37;;;3.30;;
249;SDS011;109;19.806;-70.704;2023-08-07T03:24:48;11.53;;;3.57;;
249;SDS011;109;19.806;-70.704;2023-08-07T03:27:22;11.33;;;4.60;;
249;SDS011;109;19.806;-70.704;2023-08-07T03:29:48;12.07;;;3.70;;
249;SDS011;109;19.806;-70.704;2023-08-07T03:32:34;11.23;;;3.10;;
249;SDS011;109;19.806;-70.704;2023-08-07T03:35:08;10.67;;;3.20;;
249;SDS011;109;19.806;-70.704;2023-08-07T03:37:34;12.63;;;3.60;;
249;SDS011;109;19.806;-70.704;2023-08-07T03:40:08;10.80;;;3.63;;
249;SDS011;109;19.806;-70.704;2023-08-07T03:42:48;11.30;;;3.73;;
249;SDS011;109;19.806;-70.704;2023-08-07T03:45:14;11.63;;;4.07;;
249;SDS011;109;19.806;-70.704;2023-08-07T03:47:48;14.93;;;4.33;;
249;SDS011;109;19.806;-70.704;2023-08-07T03:50:14;11.83;;;3.70;;
249;SDS011;109;19.806;-70.704;2023-08-07T03:52:48;14.27;;;3.97;;
249;SDS011;109;19.806;-70.704;2023-08-07T03:55:14;11.60;;;3.57;;
249;SDS011;109;19.806;-70.704;2023-08-07T03:57:48;12.60;;;3.70;;
249;SDS011;109;19.806;-70.704;2023-08-07T04:00:14;15.17;;;4.23;;
249;SDS011;109;19.806;-70.704;2023-08-07T04:02:49;11.57;;;3.50;;
249;SDS011;109;19.806;-70.704;2023-08-07T04:05:22;16.27;;;3.43;;
249;SDS011;109;19.806;-70.704;2023-08-07T04:07:56;13.33;;;4.80;;
249;SDS011;109;19.806;-70.704;2023-08-07T04:10:22;9.20;;;3.77;;
249;SDS011;109;19.806;-70.704;2023-08-07T04:12:56;15.20;;;3.60;;
249;SDS011;109;19.806;-70.704;2023-08-07T04:15:22;11.97;;;3.60;;
249;SDS011;109;19.806;-70.704;2023-08-07T04:17:56;12.07;;;3.37;;
249;SDS011;109;19.806;-70.704;2023-08-07T04:20:22;10.93;;;3.30;;
249;SDS011;109;19.806;-70.704;2023-08-07T04:22:56;12.40;;;3.70;;
249;SDS011;109;19.806;-70.704;2023-08-07T04:25:22;10.20;;;3.87;;
249;SDS011;109;19.806;-70.704;2023-08-07T04:27:55;11.40;;;3.90;;
249;SDS011;109;19.806;-70.704;2023-08-07T04:30:22;12.73;;;3.47;;
249;SDS011;109;19.806;-70.704;2023-08-07T04:33:02;9.77;;;3.50;;
249;SDS011;109;19.806;-70.704;2023-08-07T04:35:36;10.33;;;3.73;;
249;SDS011;109;19.806;-70.704;2023-08-07T04:38:03;12.70;;;3.53;;
249;SDS011;109;19.806;-70.704;2023-08-07T04:40:35;15.87;;;3.77;;
249;SDS011;109;19.806;-70.704;2023-08-07T04:43:16;13.30;;;3.47;;
249;SDS011;109;19.806;-70.704;2023-08-07T04:45:43;14.63;;;3.33;;
249;SDS011;109;19.806;-70.704;2023-08-07T04:48:18;12.60;;;3.87;;
249;SDS011;109;19.806;-70.704;2023-08-07T04:50:46;10.70;;;3.40;;
249;SDS011;109;19.806;-70.704;2023-08-07T04:53:19;11.40;;;4.03;;
249;SDS011;109;19.806;-70.704;2023-08-07T04:55:46;10.77;;;3.60;;
249;SDS011;109;19.806;-70.704;2023-08-07T04:58:19;15.33;;;4.50;;
249;SDS011;109;19.806;-70.704;2023-08-07T05:00:46;11.10;;;3.70;;
249;SDS011;109;19.806;-70.704;2023-08-07T05:03:18;18.10;;;4.23;;
249;SDS011;109;19.806;-70.704;2023-08-07T05:05:45;14.13;;;3.93;;
249;SDS011;109;19.806;-70.704;2023-08-07T05:08:17;9.23;;;3.60;;
249;SDS011;109;19.806;-70.704;2023-08-07T05:10:44;9.33;;;3.87;;
249;SDS011;109;19.806;-70.704;2023-08-07T05:13:24;11.10;;;3.60;;
249;SDS011;109;19.806;-70.704;2023-08-07T05:15:58;13.97;;;4.03;;
249;SDS011;109;19.806;-70.704;2023-08-07T05:18:24;17.90;;;4.40;;
249;SDS011;109;19.806;-70.704;2023-08-07T05:20:56;13.30;;;4.20;;
249;SDS011;109;19.806;-70.704;2023-08-07T05:23:23;12.40;;;3.60;;
249;SDS011;109;19.806;-70.704;2023-08-07T05:25:56;9.23;;;3.77;;
249;SDS011;109;19.806;-70.704;2023-08-07T05:28:23;13.40;;;4.80;;
249;SDS011;109;19.806;-70.704;2023-08-07T05:30:55;14.40;;;3.50;;
249;SDS011;109;19.806;-70.704;2023-08-07T05:33:22;11.03;;;4.00;;
249;SDS011;109;19.806;-70.704;2023-08-07T05:35:55;16.10;;;4.10;;
249;SDS011;109;19.806;-70.704;2023-08-07T05:38:41;15.40;;;3.93;;
249;SDS011;109;19.806;-70.704;2023-08-07T05:41:15;8.80;;;4.03;;
249;SDS011;109;19.806;-70.704;2023-08-07T05:43:42;14.50;;;4.00;;
249;SDS011;109;19.806;-70.704;2023-08-07T05:46:15;12.33;;;3.50;;
249;SDS011;109;19.806;-70.704;2023-08-07T05:48:41;11.10;;;3.67;;
249;SDS011;109;19.806;-70.704;2023-08-07T05:51:15;15.73;;;3.90;;
249;SDS011;109;19.806;-70.704;2023-08-07T05:53:41;16.83;;;3.53;;
249;SDS011;109;19.806;-70.704;2023-08-07T05:56:15;11.90;;;3.77;;
249;SDS011;109;19.806;-70.704;2023-08-07T05:58:49;13.27;;;4.37;;
249;SDS011;109;19.806;-70.704;2023-08-07T06:01:23;9.03;;;3.60;;
249;SDS011;109;19.806;-70.704;2023-08-07T06:04:01;18.13;;;3.93;;
249;SDS011;109;19.806;-70.704;2023-08-07T06:06:28;15.50;;;4.33;;
249;SDS011;109;19.806;-70.704;2023-08-07T06:09:02;8.63;;;3.27;;
249;SDS011;109;19.806;-70.704;2023-08-07T06:11:29;15.63;;;4.60;;
249;SDS011;109;19.806;-70.704;2023-08-07T06:14:02;11.83;;;3.73;;
249;SDS011;109;19.806;-70.704;2023-08-07T06:16:28;9.87;;;4.10;;
249;SDS011;109;19.806;-70.704;2023-08-07T06:19:02;13.47;;;4.60;;
249;SDS011;109;19.806;-70.704;2023-08-07T06:21:29;9.67;;;3.70;;
249;SDS011;109;19.806;-70.704;2023-08-07T06:24:02;13.20;;;3.90;;
249;SDS011;109;19.806;-70.704;2023-08-07T06:26:28;14.60;;;4.03;;
249;SDS011;109;19.806;-70.704;2023-08-07T06:29:02;16.70;;;4.13;;
249;SDS011;109;19.806;-70.704;2023-08-07T06:31:28;13.93;;;3.77;;
249;SDS011;109;19.806;-70.704;2023-08-07T06:34:00;12.80;;;4.63;;
249;SDS011;109;19.806;-70.704;2023-08-07T06:36:37;13.30;;;4.10;;
249;SDS011;109;19.806;-70.704;2023-08-07T06:39:11;16.83;;;4.17;;
249;SDS011;109;19.806;-70.704;2023-08-07T06:41:50;20.93;;;4.90;;
249;SDS011;109;19.806;-70.704;2023-08-07T06:44:20;8.10;;;3.80;;
249;SDS011;109;19.806;-70.704;2023-08-07T06:46:59;17.13;;;4.90;;
249;SDS011;109;19.806;-70.704;2023-08-07T06:49:33;14.60;;;4.67;;
249;SDS011;109;19.806;-70.704;2023-08-07T06:51:59;13.50;;;4.43;;
249;SDS011;109;19.806;-70.704;2023-08-07T06:54:33;12.67;;;4.13;;
249;SDS011;109;19.806;-70.704;2023-08-07T06:56:59;11.50;;;3.90;;
249;SDS011;109;19.806;-70.704;2023-08-07T06:59:31;17.90;;;4.10;;
249;SDS011;109;19.806;-70.704;2023-08-07T07:01:58;11.27;;;3.43;;
249;SDS011;109;19.806;-70.704;2023-08-07T07:04:31;16.37;;;4.47;;
249;SDS011;109;19.806;-70.704;2023-08-07T07:06:58;15.30;;;3.90;;
249;SDS011;109;19.806;-70.704;2023-08-07T07:09:32;14.67;;;4.77;;
249;SDS011;109;19.806;-70.704;2023-08-07T07:11:58;17.63;;;4.60;;
249;SDS011;109;19.806;-70.704;2023-08-07T07:14:32;11.63;;;3.73;;
249;SDS011;109;19.806;-70.704;2023-08-07T07:17:09;14.00;;;4.50;;
249;SDS011;109;19.806;-70.704;2023-08-07T07:19:35;18.97;;;4.63;;
249;SDS011;109;19.806;-70.704;2023-08-07T07:22:08;13.07;;;4.17;;
249;SDS011;109;19.806;-70.704;2023-08-07T07:24:41;18.53;;;4.20;;
249;SDS011;109;19.806;-70.704;2023-08-07T07:27:15;26.57;;;5.33;;
249;SDS011;109;19.806;-70.704;2023-08-07T07:29:41;20.53;;;4.93;;
249;SDS011;109;19.806;-70.704;2023-08-07T07:32:15;14.43;;;5.17;;
249;SDS011;109;19.806;-70.704;2023-08-07T07:34:42;14.63;;;4.07;;
249;SDS011;109;19.806;-70.704;2023-08-07T07:37:15;22.87;;;5.20;;
249;SDS011;109;19.806;-70.704;2023-08-07T07:40:01;13.40;;;4.43;;
249;SDS011;109;19.806;-70.704;2023-08-07T07:42:35;18.43;;;5.00;;
249;SDS011;109;19.806;-70.704;2023-08-07T07:45:01;14.93;;;4.63;;
249;SDS011;109;19.806;-70.704;2023-08-07T07:47:35;15.67;;;4.50;;
249;SDS011;109;19.806;-70.704;2023-08-07T07:50:05;31.33;;;6.17;;
249;SDS011;109;19.806;-70.704;2023-08-07T07:52:40;20.20;;;5.00;;
249;SDS011;109;19.806;-70.704;2023-08-07T07:55:06;25.73;;;5.60;;
249;SDS011;109;19.806;-70.704;2023-08-07T07:57:42;19.67;;;5.13;;
249;SDS011;109;19.806;-70.704;2023-08-07T08:00:08;18.23;;;5.17;;
249;SDS011;109;19.806;-70.704;2023-08-07T08:02:46;23.53;;;4.97;;
249;SDS011;109;19.806;-70.704;2023-08-07T08:05:12;21.00;;;5.40;;
249;SDS011;109;19.806;-70.704;2023-08-07T08:07:48;15.70;;;5.20;;
249;SDS011;109;19.806;-70.704;2023-08-07T08:10:14;15.93;;;4.80;;
249;SDS011;109;19.806;-70.704;2023-08-07T08:12:48;22.73;;;5.00;;
249;SDS011;109;19.806;-70.704;2023-08-07T08:15:14;13.60;;;4.63;;
249;SDS011;109;19.806;-70.704;2023-08-07T08:17:47;16.53;;;5.70;;
249;SDS011;109;19.806;-70.704;2023-08-07T08:20:14;14.77;;;4.60;;
249;SDS011;109;19.806;-70.704;2023-08-07T08:22:51;24.90;;;5.73;;
249;SDS011;109;19.806;-70.704;2023-08-07T08:25:24;18.10;;;5.47;;
249;SDS011;109;19.806;-70.704;2023-08-07T08:27:58;17.20;;;5.33;;
249;SDS011;109;19.806;-70.704;2023-08-07T08:30:25;24.83;;;5.10;;
249;SDS011;109;19.806;-70.704;2023-08-07T08:32:59;21.40;;;5.03;;
249;SDS011;109;19.806;-70.704;2023-08-07T08:35:25;15.77;;;4.57;;
249;SDS011;109;19.806;-70.704;2023-08-07T08:37:58;16.53;;;5.50;;
249;SDS011;109;19.806;-70.704;2023-08-07T08:40:44;19.57;;;4.53;;
249;SDS011;109;19.806;-70.704;2023-08-07T08:43:18;20.60;;;5.13;;
249;SDS011;109;19.806;-70.704;2023-08-07T08:45:45;26.03;;;4.90;;
249;SDS011;109;19.806;-70.704;2023-08-07T08:48:19;11.70;;;4.60;;
249;SDS011;109;19.806;-70.704;2023-08-07T08:50:56;13.97;;;4.10;;
249;SDS011;109;19.806;-70.704;2023-08-07T08:53:22;13.20;;;4.50;;
249;SDS011;109;19.806;-70.704;2023-08-07T08:56:05;14.00;;;5.13;;
249;SDS011;109;19.806;-70.704;2023-08-07T08:58:52;15.83;;;4.40;;
249;SDS011;109;19.806;-70.704;2023-08-07T09:01:26;24.50;;;5.23;;
249;SDS011;109;19.806;-70.704;2023-08-07T09:03:53;17.40;;;5.20;;
249;SDS011;109;19.806;-70.704;2023-08-07T09:06:29;23.70;;;4.63;;
249;SDS011;109;19.806;-70.704;2023-08-07T09:08:58;16.17;;;5.63;;
249;SDS011;109;19.806;-70.704;2023-08-07T09:11:40;21.10;;;4.87;;
249;SDS011;109;19.806;-70.704;2023-08-07T09:14:20;15.33;;;4.40;;
249;SDS011;109;19.806;-70.704;2023-08-07T09:16:58;13.70;;;4.90;;
249;SDS011;109;19.806;-70.704;2023-08-07T09:19:26;16.47;;;4.73;;
249;SDS011;109;19.806;-70.704;2023-08-07T09:22:00;20.33;;;4.57;;
249;SDS011;109;19.806;-70.704;2023-08-07T09:24:26;16.67;;;4.90;;
249;SDS011;109;19.806;-70.704;2023-08-07T09:27:00;17.47;;;5.80;;
249;SDS011;109;19.806;-70.704;2023-08-07T09:29:26;18.50;;;5.00;;
249;SDS011;109;19.806;-70.704;2023-08-07T09:32:11;23.10;;;4.87;;
249;SDS011;109;19.806;-70.704;2023-08-07T09:34:45;28.53;;;5.67;;
249;SDS011;109;19.806;-70.704;2023-08-07T09:37:13;15.13;;;5.10;;
249;SDS011;109;19.806;-70.704;2023-08-07T09:39:46;32.57;;;5.70;;
249;SDS011;109;19.806;-70.704;2023-08-07T09:42:26;22.10;;;5.00;;
249;SDS011;109;19.806;-70.704;2023-08-07T09:45:11;19.43;;;4.93;;
249;SDS011;109;19.806;-70.704;2023-08-07T09:48:01;17.50;;;5.70;;
249;SDS011;109;19.806;-70.704;2023-08-07T09:50:41;17.40;;;5.17;;
249;SDS011;109;19.806;-70.704;2023-08-07T09:53:07;22.13;;;5.60;;
249;SDS011;109;19.806;-70.704;2023-08-07T09:55:43;19.30;;;5.80;;
249;SDS011;109;19.806;-70.704;2023-08-07T09:58:11;18.53;;;5.33;;
249;SDS011;109;19.806;-70.704;2023-08-07T10:00:49;23.70;;;5.70;;
249;SDS011;109;19.806;-70.704;2023-08-07T10:03:21;17.87;;;5.20;;
249;SDS011;109;19.806;-70.704;2023-08-07T10:05:55;24.37;;;5.30;;
249;SDS011;109;19.806;-70.704;2023-08-07T10:08:21;19.57;;;5.87;;
249;SDS011;109;19.806;-70.704;2023-08-07T10:10:55;18.00;;;5.20;;
249;SDS011;109;19.806;-70.704;2023-08-07T10:13:22;20.07;;;5.73;;
249;SDS011;109;19.806;-70.704;2023-08-07T10:15:56;23.33;;;5.83;;
249;SDS011;109;19.806;-70.704;2023-08-07T10:18:23;19.80;;;5.90;;
249;SDS011;109;19.806;-70.704;2023-08-07T10:20:57;22.57;;;6.00;;
249;SDS011;109;19.806;-70.704;2023-08-07T10:23:25;23.47;;;6.77;;
249;SDS011;109;19.806;-70.704;2023-08-07T10:25:59;21.73;;;5.73;;
249;SDS011;109;19.806;-70.704;2023-08-07T10:28:27;28.70;;;6.30;;
249;SDS011;109;19.806;-70.704;2023-08-07T10:31:01;23.53;;;6.20;;
249;SDS011;109;19.806;-70.704;2023-08-07T10:33:34;28.17;;;7.07;;
249;SDS011;109;19.806;-70.704;2023-08-07T10:36:11;24.13;;;6.60;;
249;SDS011;109;19.806;-70.704;2023-08-07T10:41:54;31.10;;;6.47;;
249;SDS011;109;19.806;-70.704;2023-08-07T10:44:44;23.93;;;6.77;;
249;SDS011;109;19.806;-70.704;2023-08-07T10:47:32;27.17;;;6.73;;
249;SDS011;109;19.806;-70.704;2023-08-07T10:50:06;20.73;;;6.03;;
249;SDS011;109;19.806;-70.704;2023-08-07T10:52:33;33.63;;;7.33;;
249;SDS011;109;19.806;-70.704;2023-08-07T10:55:14;30.90;;;6.40;;
249;SDS011;109;19.806;-70.704;2023-08-07T10:57:42;26.93;;;6.20;;
249;SDS011;109;19.806;-70.704;2023-08-07T11:00:08;27.70;;;7.00;;
249;SDS011;109;19.806;-70.704;2023-08-07T11:02:41;20.23;;;5.90;;
249;SDS011;109;19.806;-70.704;2023-08-07T11:05:08;25.37;;;6.47;;
249;SDS011;109;19.806;-70.704;2023-08-07T11:07:35;19.63;;;5.10;;
249;SDS011;109;19.806;-70.704;2023-08-07T11:10:07;23.37;;;5.63;;
249;SDS011;109;19.806;-70.704;2023-08-07T11:12:34;27.03;;;6.40;;
249;SDS011;109;19.806;-70.704;2023-08-07T11:15:02;23.37;;;6.30;;
249;SDS011;109;19.806;-70.704;2023-08-07T11:17:29;31.53;;;6.70;;
249;SDS011;109;19.806;-70.704;2023-08-07T11:19:56;26.60;;;5.90;;
249;SDS011;109;19.806;-70.704;2023-08-07T11:22:23;22.97;;;5.83;;
249;SDS011;109;19.806;-70.704;2023-08-07T11:24:50;23.67;;;5.83;;
249;SDS011;109;19.806;-70.704;2023-08-07T11:27:17;28.87;;;6.87;;
249;SDS011;109;19.806;-70.704;2023-08-07T11:29:47;29.80;;;7.30;;
249;SDS011;109;19.806;-70.704;2023-08-07T11:32:18;29.87;;;6.90;;
249;SDS011;109;19.806;-70.704;2023-08-07T11:34:48;34.33;;;8.40;;
249;SDS011;109;19.806;-70.704;2023-08-07T11:37:18;19.23;;;5.83;;
249;SDS011;109;19.806;-70.704;2023-08-07T11:39:45;36.73;;;7.07;;
249;SDS011;109;19.806;-70.704;2023-08-07T11:42:13;40.67;;;8.40;;
249;SDS011;109;19.806;-70.704;2023-08-07T11:44:40;23.63;;;7.53;;
249;SDS011;109;19.806;-70.704;2023-08-07T11:47:07;40.97;;;7.87;;
249;SDS011;109;19.806;-70.704;2023-08-07T11:49:36;27.13;;;6.33;;
249;SDS011;109;19.806;-70.704;2023-08-07T11:52:04;21.30;;;6.43;;
249;SDS011;109;19.806;-70.704;2023-08-07T11:54:31;31.43;;;7.47;;
249;SDS011;109;19.806;-70.704;2023-08-07T11:56:58;31.20;;;6.83;;
249;SDS011;109;19.806;-70.704;2023-08-07T11:59:25;21.13;;;6.87;;
249;SDS011;109;19.806;-70.704;2023-08-07T12:01:53;30.17;;;6.93;;
249;SDS011;109;19.806;-70.704;2023-08-07T12:04:20;32.07;;;7.20;;
249;SDS011;109;19.806;-70.704;2023-08-07T12:06:53;35.70;;;7.10;;
249;SDS011;109;19.806;-70.704;2023-08-07T12:09:20;26.13;;;6.73;;
249;SDS011;109;19.806;-70.704;2023-08-07T12:11:46;40.67;;;7.60;;
249;SDS011;109;19.806;-70.704;2023-08-07T12:14:13;32.80;;;7.60;;
249;SDS011;109;19.806;-70.704;2023-08-07T12:16:46;32.23;;;7.30;;
249;SDS011;109;19.806;-70.704;2023-08-07T12:19:13;26.67;;;7.20;;
249;SDS011;109;19.806;-70.704;2023-08-07T12:21:40;30.33;;;6.90;;
249;SDS011;109;19.806;-70.704;2023-08-07T12:24:07;37.47;;;7.80;;
249;SDS011;109;19.806;-70.704;2023-08-07T12:26:33;33.60;;;7.67;;
249;SDS011;109;19.806;-70.704;2023-08-07T12:29:00;30.40;;;7.63;;
249;SDS011;109;19.806;-70.704;2023-08-07T12:31:26;43.03;;;7.50;;
249;SDS011;109;19.806;-70.704;2023-08-07T12:33:53;41.07;;;8.30;;
249;SDS011;109;19.806;-70.704;2023-08-07T12:36:19;28.23;;;7.80;;
249;SDS011;109;19.806;-70.704;2023-08-07T12:38:46;36.47;;;7.63;;
249;SDS011;109;19.806;-70.704;2023-08-07T12:41:13;37.60;;;8.00;;
249;SDS011;109;19.806;-70.704;2023-08-07T12:43:42;40.97;;;7.80;;
249;SDS011;109;19.806;-70.704;2023-08-07T12:46:08;32.13;;;7.67;;
249;SDS011;109;19.806;-70.704;2023-08-07T12:48:35;36.10;;;7.93;;
249;SDS011;109;19.806;-70.704;2023-08-07T12:51:01;41.23;;;8.20;;
249;SDS011;109;19.806;-70.704;2023-08-07T12:53:28;34.43;;;7.60;;
249;SDS011;109;19.806;-70.704;2023-08-07T12:55:55;38.67;;;8.30;;
249;SDS011;109;19.806;-70.704;2023-08-07T12:58:21;39.40;;;8.13;;
249;SDS011;109;19.806;-70.704;2023-08-07T13:00:51;38.00;;;8.97;;
249;SDS011;109;19.806;-70.704;2023-08-07T13:03:17;42.63;;;9.37;;
249;SDS011;109;19.806;-70.704;2023-08-07T13:05:44;44.73;;;8.90;;
249;SDS011;109;19.806;-70.704;2023-08-07T13:08:10;46.77;;;9.47;;
249;SDS011;109;19.806;-70.704;2023-08-07T13:10:37;31.40;;;7.60;;
249;SDS011;109;19.806;-70.704;2023-08-07T13:13:04;46.37;;;9.57;;
249;SDS011;109;19.806;-70.704;2023-08-07T13:15:31;41.50;;;9.10;;
249;SDS011;109;19.806;-70.704;2023-08-07T13:17:57;56.77;;;10.30;;
249;SDS011;109;19.806;-70.704;2023-08-07T13:20:26;56.97;;;9.57;;
249;SDS011;109;19.806;-70.704;2023-08-07T13:22:52;43.07;;;9.13;;
249;SDS011;109;19.806;-70.704;2023-08-07T13:25:19;34.30;;;8.43;;
249;SDS011;109;19.806;-70.704;2023-08-07T13:27:46;39.87;;;9.53;;
249;SDS011;109;19.806;-70.704;2023-08-07T13:30:12;73.27;;;11.13;;
249;SDS011;109;19.806;-70.704;2023-08-07T13:32:39;69.20;;;13.10;;
249;SDS011;109;19.806;-70.704;2023-08-07T13:35:06;51.93;;;10.30;;
249;SDS011;109;19.806;-70.704;2023-08-07T13:37:32;57.90;;;10.70;;
249;SDS011;109;19.806;-70.704;2023-08-07T13:39:59;46.63;;;10.20;;
249;SDS011;109;19.806;-70.704;2023-08-07T13:42:26;58.10;;;10.40;;
249;SDS011;109;19.806;-70.704;2023-08-07T13:44:53;49.73;;;9.17;;
249;SDS011;109;19.806;-70.704;2023-08-07T13:47:21;39.27;;;8.30;;
249;SDS011;109;19.806;-70.704;2023-08-07T13:49:47;32.00;;;6.90;;
249;SDS011;109;19.806;-70.704;2023-08-07T13:52:14;31.93;;;7.50;;
249;SDS011;109;19.806;-70.704;2023-08-07T13:54:41;41.57;;;9.60;;
249;SDS011;109;19.806;-70.704;2023-08-07T13:57:07;39.47;;;7.90;;
249;SDS011;109;19.806;-70.704;2023-08-07T13:59:34;38.73;;;8.93;;
249;SDS011;109;19.806;-70.704;2023-08-07T14:02:00;29.97;;;7.13;;
249;SDS011;109;19.806;-70.704;2023-08-07T14:04:27;28.03;;;7.90;;
249;SDS011;109;19.806;-70.704;2023-08-07T14:06:53;29.87;;;8.43;;
249;SDS011;109;19.806;-70.704;2023-08-07T14:09:20;41.73;;;8.07;;
249;SDS011;109;19.806;-70.704;2023-08-07T14:11:47;42.97;;;8.93;;
249;SDS011;109;19.806;-70.704;2023-08-07T14:14:15;39.63;;;9.17;;
249;SDS011;109;19.806;-70.704;2023-08-07T14:16:41;30.30;;;6.83;;
249;SDS011;109;19.806;-70.704;2023-08-07T14:19:08;39.00;;;7.97;;
249;SDS011;109;19.806;-70.704;2023-08-07T14:21:35;33.00;;;7.97;;
249;SDS011;109;19.806;-70.704;2023-08-07T14:24:01;35.37;;;8.40;;
249;SDS011;109;19.806;-70.704;2023-08-07T14:26:28;27.63;;;8.43;;
249;SDS011;109;19.806;-70.704;2023-08-07T14:28:55;36.23;;;7.53;;
249;SDS011;109;19.806;-70.704;2023-08-07T14:31:21;42.87;;;8.23;;
249;SDS011;109;19.806;-70.704;2023-08-07T14:33:48;42.53;;;9.50;;
249;SDS011;109;19.806;-70.704;2023-08-07T14:36:14;38.50;;;8.47;;
249;SDS011;109;19.806;-70.704;2023-08-07T14:38:41;34.40;;;7.90;;
249;SDS011;109;19.806;-70.704;2023-08-07T14:41:07;34.60;;;8.17;;
249;SDS011;109;19.806;-70.704;2023-08-07T14:43:34;28.30;;;8.67;;
249;SDS011;109;19.806;-70.704;2023-08-07T14:46:00;31.50;;;7.83;;
249;SDS011;109;19.806;-70.704;2023-08-07T14:48:27;36.13;;;8.07;;
249;SDS011;109;19.806;-70.704;2023-08-07T14:50:53;34.57;;;8.33;;
249;SDS011;109;19.806;-70.704;2023-08-07T14:53:21;35.10;;;11.03;;
249;SDS011;109;19.806;-70.704;2023-08-07T14:55:48;41.53;;;8.90;;
249;SDS011;109;19.806;-70.704;2023-08-07T14:58:14;35.43;;;8.47;;
249;SDS011;109;19.806;-70.704;2023-08-07T15:00:41;27.43;;;8.50;;
249;SDS011;109;19.806;-70.704;2023-08-07T15:03:07;39.43;;;8.50;;
249;SDS011;109;19.806;-70.704;2023-08-07T15:05:34;33.93;;;8.60;;
249;SDS011;109;19.806;-70.704;2023-08-07T15:08:01;26.27;;;8.13;;
249;SDS011;109;19.806;-70.704;2023-08-07T15:10:29;27.97;;;8.47;;
249;SDS011;109;19.806;-70.704;2023-08-07T15:12:55;25.10;;;7.90;;
249;SDS011;109;19.806;-70.704;2023-08-07T15:15:22;27.10;;;7.23;;
249;SDS011;109;19.806;-70.704;2023-08-07T15:17:48;31.30;;;7.50;;
249;SDS011;109;19.806;-70.704;2023-08-07T15:20:15;22.60;;;6.60;;
249;SDS011;109;19.806;-70.704;2023-08-07T15:22:42;29.90;;;7.43;;
249;SDS011;109;19.806;-70.704;2023-08-07T15:25:08;20.93;;;7.07;;